Time;durP1;ratioP1;P1;durP2;ratioP2;P2;SDS_P1;SDS_P2;PMS_P1;PMS_P2;Temp;Humidity;BMP_temperature;BMP_pressure;BME280_temperature;BME280_humidity;BME280_pressure;Samples;Min_cycle;Max_cycle;Signal;HPM_P1;HPM_P2
2021/01/13 00:00:36;;;;;;;1.27;0.73;;;-0.70;99.90;;;;;;5048446;28;20456;-76
2021/01/13 00:03:02;;;;;;;0.47;0.32;;;-0.70;99.90;;;;;;5067508;28;20107;-76
2021/01/13 00:05:28;;;;;;;1.50;0.60;;;-0.70;99.90;;;;;;5063491;28;20067;-77
2021/01/13 00:07:54;;;;;;;0.60;0.60;;;-0.70;99.90;;;;;;5068574;28;20054;-77
2021/01/13 00:10:20;;;;;;;0.73;0.55;;;-0.70;99.90;;;;;;5068985;28;20406;-75
2021/01/13 00:12:46;;;;;;;0.82;0.55;;;-0.70;99.90;;;;;;5063098;28;20029;-76
2021/01/13 00:15:12;;;;;;;1.08;0.55;;;-0.80;99.90;;;;;;5051988;28;20037;-76
2021/01/13 00:17:45;;;;;;;0.68;0.65;;;-0.80;99.90;;;;;;5056653;28;20519;-76
2021/01/13 00:20:11;;;;;;;1.67;0.68;;;-0.70;99.90;;;;;;5061628;28;20052;-75
2021/01/13 00:22:37;;;;;;;1.15;0.68;;;-0.80;99.90;;;;;;5070577;28;20511;-76
2021/01/13 00:25:04;;;;;;;2.20;0.57;;;-0.80;99.90;;;;;;5071601;28;20017;-76
2021/01/13 00:27:35;;;;;;;0.80;0.77;;;-0.90;99.90;;;;;;5070576;28;20090;-76
2021/01/13 00:30:01;;;;;;;2.50;0.88;;;-0.90;99.90;;;;;;5062035;28;20052;-76
2021/01/13 00:32:26;;;;;;;1.08;0.90;;;-0.90;99.90;;;;;;5069313;28;20568;-76
2021/01/13 00:34:52;;;;;;;2.65;0.70;;;-0.90;99.90;;;;;;5071687;28;20086;-76
2021/01/13 00:37:18;;;;;;;1.25;0.80;;;-0.90;99.90;;;;;;5071846;28;20048;-76
2021/01/13 00:39:43;;;;;;;1.27;0.60;;;-0.90;99.90;;;;;;5070454;28;20032;-76
2021/01/13 00:42:09;;;;;;;1.27;0.80;;;-0.90;99.90;;;;;;5071567;28;20039;-76
2021/01/13 00:44:35;;;;;;;1.27;0.80;;;-0.90;99.90;;;;;;5053678;28;20039;-76
2021/01/13 00:47:01;;;;;;;2.08;0.88;;;-0.90;99.90;;;;;;5069846;28;20029;-76
2021/01/13 00:49:27;;;;;;;1.63;1.02;;;-0.90;99.90;;;;;;5070945;28;20035;-74
2021/01/13 00:51:52;;;;;;;1.63;0.88;;;-0.90;99.90;;;;;;5069612;28;20028;-76
2021/01/13 00:54:18;;;;;;;3.28;1.45;;;-0.90;99.90;;;;;;5071300;28;20120;-75
2021/01/13 00:56:47;;;;;;;2.75;1.38;;;-0.90;99.90;;;;;;5071228;28;20032;-76
2021/01/13 00:59:13;;;;;;;2.88;1.63;;;-0.90;99.90;;;;;;5070739;28;20075;-76
2021/01/13 01:01:41;;;;;;;1.88;1.30;;;-0.90;99.90;;;;;;5069182;28;20119;-76
2021/01/13 01:04:08;;;;;;;3.60;1.80;;;-0.90;99.90;;;;;;5053213;28;20032;-76
2021/01/13 01:06:34;;;;;;;2.20;1.50;;;-0.90;99.90;;;;;;5053218;28;20060;-76
2021/01/13 01:09:00;;;;;;;4.80;2.13;;;-0.90;99.90;;;;;;5070171;28;20063;-76
2021/01/13 01:11:32;;;;;;;1.75;1.45;;;-0.80;99.90;;;;;;5070538;28;20649;-76
2021/01/13 01:13:58;;;;;;;2.80;1.85;;;-0.80;99.90;;;;;;5069843;28;20039;-76
2021/01/13 01:16:38;;;;;;;3.60;2.05;;;-0.80;99.90;;;;;;5052835;28;20399;-76
2021/01/13 01:19:06;;;;;;;2.78;2.00;;;-0.80;99.90;;;;;;5069307;28;20045;-76
2021/01/13 01:21:31;;;;;;;4.85;2.80;;;-0.80;99.90;;;;;;5058076;28;20080;-76
2021/01/13 01:23:57;;;;;;;3.75;1.95;;;-0.80;99.90;;;;;;5065632;28;20028;-76
2021/01/13 01:26:23;;;;;;;4.85;2.33;;;-0.80;99.90;;;;;;5078245;28;20483;-76
2021/01/13 01:28:49;;;;;;;5.22;2.13;;;-0.70;99.90;;;;;;5074627;28;20020;-76
2021/01/13 01:31:15;;;;;;;5.43;2.47;;;-0.80;99.90;;;;;;5089866;28;20359;-76
2021/01/13 01:33:41;;;;;;;3.55;2.10;;;-0.70;99.90;;;;;;5073054;28;20040;-76
2021/01/13 01:36:07;;;;;;;3.58;2.30;;;-0.70;99.90;;;;;;5089519;28;20028;-76
2021/01/13 01:38:33;;;;;;;4.82;2.22;;;-0.70;99.90;;;;;;5072514;28;20036;-76
2021/01/13 01:41:06;;;;;;;3.88;2.42;;;-0.70;99.90;;;;;;5088920;28;20039;-75
2021/01/13 01:43:32;;;;;;;5.00;2.47;;;-0.70;99.90;;;;;;5090581;28;20028;-75
2021/01/13 01:45:58;;;;;;;3.95;2.10;;;-0.70;99.90;;;;;;5089116;28;20066;-76
2021/01/13 01:48:51;;;;;;;6.45;2.30;;;-0.70;99.90;;;;;;5088768;28;20036;-76
2021/01/13 01:51:38;;;;;;;3.70;1.98;;;-0.70;99.90;;;;;;5088255;28;20036;-76
2021/01/13 01:54:22;;;;;;;4.28;2.65;;;-0.60;99.90;;;;;;5090607;28;20044;-75
2021/01/13 01:56:50;;;;;;;5.75;2.47;;;-0.60;99.90;;;;;;5085598;28;20634;-76
2021/01/13 01:59:16;;;;;;;5.03;2.25;;;-0.60;99.90;;;;;;5062272;28;20040;-76
2021/01/13 02:01:51;;;;;;;5.47;2.42;;;-0.60;99.90;;;;;;5084599;28;20043;-75
2021/01/13 02:04:32;;;;;;;3.57;2.43;;;-0.60;99.90;;;;;;5067997;28;20151;-76
2021/01/13 02:06:58;;;;;;;3.75;2.33;;;-0.50;99.90;;;;;;5069416;28;20021;-76
2021/01/13 02:09:34;;;;;;;3.03;2.05;;;-0.50;99.90;;;;;;5069487;28;20043;-75
2021/01/13 02:12:08;;;;;;;3.78;2.33;;;-0.50;99.90;;;;;;5053276;28;20124;-76
2021/01/13 02:14:33;;;;;;;3.83;2.65;;;-0.50;99.90;;;;;;5068639;28;20028;-76
2021/01/13 02:17:03;;;;;;;7.05;2.33;;;-0.50;99.90;;;;;;5070187;28;20526;-75
2021/01/13 02:19:47;;;;;;;6.82;2.53;;;-0.40;99.90;;;;;;5069382;28;20041;-76
2021/01/13 02:22:21;;;;;;;6.10;2.92;;;-0.40;99.90;;;;;;5070131;28;20079;-76
2021/01/13 02:25:12;;;;;;;4.15;2.15;;;-0.30;99.90;;;;;;5069094;28;20032;-77
2021/01/13 02:27:59;;;;;;;4.20;2.72;;;-0.30;99.90;;;;;;5070048;28;20115;-76
2021/01/13 02:30:49;;;;;;;5.50;2.65;;;-0.30;99.90;;;;;;5069263;28;20025;-76
2021/01/13 02:33:39;;;;;;;3.55;2.58;;;-0.30;99.90;;;;;;5027633;28;20048;-77
2021/01/13 02:36:35;;;;;;;3.70;2.42;;;-0.30;99.90;;;;;;5069936;28;20399;-76
2021/01/13 02:39:05;;;;;;;5.97;3.00;;;-0.30;99.90;;;;;;5067889;28;20041;-76
2021/01/13 02:41:35;;;;;;;4.30;2.60;;;-0.30;99.90;;;;;;5064066;28;20052;-76
2021/01/13 02:44:09;;;;;;;6.10;2.60;;;-0.30;99.90;;;;;;5065334;28;21140;-77
2021/01/13 02:47:00;;;;;;;7.73;2.37;;;-0.30;99.90;;;;;;5067645;28;20071;-76
2021/01/13 02:49:39;;;;;;;3.92;2.53;;;-0.30;99.90;;;;;;5069305;28;20086;-76
2021/01/13 02:52:19;;;;;;;3.03;2.63;;;-0.30;99.90;;;;;;5069544;28;20128;-76
2021/01/13 02:54:56;;;;;;;6.18;2.78;;;-0.30;99.90;;;;;;5071162;28;20402;-76
2021/01/13 02:57:27;;;;;;;8.90;3.03;;;-0.30;99.90;;;;;;5073321;28;20052;-75
2021/01/13 02:59:56;;;;;;;3.65;2.72;;;-0.30;99.90;;;;;;5071339;28;20033;-76
2021/01/13 03:02:37;;;;;;;5.95;2.55;;;-0.30;99.90;;;;;;5051907;28;20044;-77
2021/01/13 03:05:04;;;;;;;5.80;2.67;;;-0.30;99.90;;;;;;5060877;28;20052;-77
2021/01/13 03:07:35;;;;;;;4.25;3.00;;;-0.30;99.90;;;;;;5054398;28;20044;-74
2021/01/13 03:10:15;;;;;;;3.50;2.45;;;-0.30;99.90;;;;;;5076024;28;20040;-77
2021/01/13 03:12:41;;;;;;;4.47;2.35;;;-0.30;99.90;;;;;;5076678;28;20046;-76
2021/01/13 03:15:09;;;;;;;6.85;3.03;;;-0.30;99.90;;;;;;5055037;28;20036;-75
2021/01/13 03:17:34;;;;;;;3.25;2.28;;;-0.30;99.90;;;;;;5084848;28;20028;-76
2021/01/13 03:20:30;;;;;;;4.18;2.33;;;-0.30;99.90;;;;;;5090801;28;20093;-76
2021/01/13 03:23:21;;;;;;;4.97;2.60;;;-0.30;99.90;;;;;;5092208;28;20509;-75
2021/01/13 03:25:54;;;;;;;3.95;2.33;;;-0.30;99.90;;;;;;5093229;28;20089;-75
2021/01/13 03:28:24;;;;;;;6.22;2.42;;;-0.30;99.90;;;;;;5091287;28;20074;-76
2021/01/13 03:30:51;;;;;;;4.15;2.05;;;-0.30;99.90;;;;;;5092695;28;20047;-76
2021/01/13 03:33:25;;;;;;;3.95;2.67;;;-0.30;99.90;;;;;;5092928;28;20093;-76
2021/01/13 03:36:03;;;;;;;4.40;2.58;;;-0.20;99.90;;;;;;5091615;28;20028;-75
2021/01/13 03:38:30;;;;;;;5.60;2.63;;;-0.20;99.90;;;;;;5092277;28;20119;-76
2021/01/13 03:41:03;;;;;;;5.70;2.38;;;-0.20;99.90;;;;;;5091033;28;20516;-75
2021/01/13 03:43:35;;;;;;;5.80;2.92;;;-0.30;99.90;;;;;;5092586;28;20105;-75
2021/01/13 03:46:07;;;;;;;5.22;3.05;;;-0.20;99.90;;;;;;5091341;28;20028;-76
2021/01/13 03:48:33;;;;;;;6.03;2.78;;;-0.20;99.90;;;;;;5091139;28;20398;-75
2021/01/13 03:51:01;;;;;;;3.65;2.60;;;-0.20;99.90;;;;;;5092345;28;20024;-75
2021/01/13 03:53:28;;;;;;;8.90;2.42;;;-0.20;99.90;;;;;;5092612;28;20111;-75
2021/01/13 03:55:56;;;;;;;7.60;2.50;;;-0.20;99.90;;;;;;5092765;28;20032;-76
2021/01/13 03:58:50;;;;;;;4.90;2.80;;;-0.20;99.90;;;;;;5076971;28;20036;-76
2021/01/13 04:01:22;;;;;;;3.78;2.30;;;-0.30;99.90;;;;;;5071557;28;20032;-75
2021/01/13 04:04:14;;;;;;;5.82;2.65;;;-0.20;99.90;;;;;;5070407;28;20017;-76
2021/01/13 04:06:42;;;;;;;6.05;2.42;;;-0.30;99.90;;;;;;5051206;28;20096;-75
2021/01/13 04:09:16;;;;;;;4.40;2.67;;;-0.30;99.90;;;;;;5050584;28;20491;-76
2021/01/13 04:11:48;;;;;;;4.03;2.28;;;-0.30;99.90;;;;;;5051720;28;20533;-75
2021/01/13 04:14:18;;;;;;;5.00;2.65;;;-0.30;99.90;;;;;;5050683;28;20054;-75
2021/01/13 04:16:45;;;;;;;3.75;2.20;;;-0.30;99.90;;;;;;5052322;28;20029;-75
2021/01/13 04:19:11;;;;;;;3.97;2.38;;;-0.30;99.90;;;;;;5050402;28;20033;-76
2021/01/13 04:21:37;;;;;;;3.90;2.25;;;-0.30;99.90;;;;;;5051086;28;20059;-75
2021/01/13 04:24:03;;;;;;;6.95;2.45;;;-0.30;99.90;;;;;;5051798;28;20776;-75
2021/01/13 04:26:30;;;;;;;4.63;2.22;;;-0.30;99.90;;;;;;5051540;28;20384;-76
2021/01/13 04:28:56;;;;;;;3.22;1.88;;;-0.30;99.90;;;;;;5051473;28;20369;-75
2021/01/13 04:31:23;;;;;;;7.07;2.20;;;-0.30;99.90;;;;;;5050106;28;20111;-75
2021/01/13 04:33:50;;;;;;;4.47;2.20;;;-0.30;99.90;;;;;;5050495;28;20041;-75
2021/01/13 04:36:17;;;;;;;4.68;2.13;;;-0.30;99.90;;;;;;5051629;28;20036;-75
2021/01/13 04:38:44;;;;;;;8.02;2.17;;;-0.30;99.90;;;;;;5051020;28;20061;-75
2021/01/13 04:41:13;;;;;;;2.90;2.17;;;-0.20;99.90;;;;;;5033246;28;20037;-75
2021/01/13 04:43:56;;;;;;;4.50;2.22;;;-0.20;99.90;;;;;;5051355;28;20455;-76
2021/01/13 04:46:36;;;;;;;5.18;2.03;;;-0.30;99.90;;;;;;5051568;28;20079;-76
2021/01/13 04:49:01;;;;;;;3.42;2.13;;;-0.30;99.90;;;;;;5050834;28;20029;-75
2021/01/13 04:51:31;;;;;;;3.38;1.63;;;-0.30;99.90;;;;;;5050941;28;20495;-75
2021/01/13 04:53:57;;;;;;;3.22;1.75;;;-0.30;99.90;;;;;;5033496;28;20415;-76
2021/01/13 04:56:25;;;;;;;2.25;1.60;;;-0.30;99.90;;;;;;5049825;28;20044;-75
2021/01/13 04:58:51;;;;;;;2.85;1.85;;;-0.30;99.90;;;;;;5068197;28;20515;-76
2021/01/13 05:01:32;;;;;;;2.85;1.92;;;-0.30;99.90;;;;;;5070389;28;20134;-76
2021/01/13 05:04:27;;;;;;;6.05;1.92;;;-0.30;99.90;;;;;;5054380;28;20531;-75
2021/01/13 05:07:12;;;;;;;5.22;1.80;;;-0.30;99.90;;;;;;5071422;28;20066;-75
2021/01/13 05:10:03;;;;;;;3.72;1.73;;;-0.30;99.90;;;;;;5068310;28;20515;-75
2021/01/13 05:12:44;;;;;;;4.55;1.77;;;-0.30;99.90;;;;;;5070382;28;20090;-76
2021/01/13 05:15:15;;;;;;;3.80;1.90;;;-0.40;99.90;;;;;;5070829;28;20050;-75
2021/01/13 05:17:58;;;;;;;4.25;1.77;;;-0.40;99.90;;;;;;5072482;28;20110;-75
2021/01/13 05:20:27;;;;;;;2.55;1.58;;;-0.40;99.90;;;;;;5048308;28;20152;-76
2021/01/13 05:22:54;;;;;;;5.03;2.30;;;-0.40;99.90;;;;;;5050920;28;20058;-76
2021/01/13 05:25:42;;;;;;;2.42;1.75;;;-0.40;99.90;;;;;;5049265;28;20044;-76
2021/01/13 05:28:13;;;;;;;7.88;1.83;;;-0.50;99.90;;;;;;5049909;28;20025;-73
2021/01/13 05:30:45;;;;;;;4.97;2.38;;;-0.50;99.90;;;;;;5049898;28;20128;-76
2021/01/13 05:33:19;;;;;;;4.15;1.83;;;-0.50;99.90;;;;;;5050838;28;20037;-76
2021/01/13 05:35:51;;;;;;;4.95;1.95;;;-0.50;99.90;;;;;;5050854;28;20037;-76
2021/01/13 05:38:39;;;;;;;5.38;1.98;;;-0.50;99.90;;;;;;5049133;28;20041;-75
2021/01/13 05:41:13;;;;;;;4.05;2.20;;;-0.50;99.90;;;;;;5064826;28;20428;-76
2021/01/13 05:43:48;;;;;;;4.68;2.22;;;-0.50;99.90;;;;;;5049429;28;20392;-75
2021/01/13 05:46:15;;;;;;;5.78;1.90;;;-0.50;99.90;;;;;;5049518;28;20036;-76
2021/01/13 05:48:42;;;;;;;6.15;2.40;;;-0.50;99.90;;;;;;5049140;28;20021;-76
2021/01/13 05:51:09;;;;;;;1.95;1.67;;;-0.50;99.90;;;;;;5050043;28;20071;-76
2021/01/13 05:53:35;;;;;;;2.53;1.67;;;-0.50;99.90;;;;;;5050091;28;20039;-75
2021/01/13 05:56:03;;;;;;;5.90;2.85;;;-0.50;99.90;;;;;;5048794;28;20033;-75
2021/01/13 05:58:29;;;;;;;5.30;2.13;;;-0.60;99.90;;;;;;5065093;28;20036;-76
2021/01/13 06:00:59;;;;;;;4.45;1.92;;;-0.60;99.90;;;;;;5063008;28;20107;-76
2021/01/13 06:03:29;;;;;;;3.67;2.20;;;-0.60;99.90;;;;;;5060723;28;20113;-76
2021/01/13 06:05:59;;;;;;;4.57;1.88;;;-0.60;99.90;;;;;;5058365;28;20439;-76
2021/01/13 06:08:29;;;;;;;4.45;2.15;;;-0.60;99.90;;;;;;5058823;28;20048;-76
2021/01/13 06:11:04;;;;;;;6.82;2.00;;;-0.60;99.90;;;;;;5060966;28;20032;-76
2021/01/13 06:13:33;;;;;;;4.65;2.25;;;-0.50;99.90;;;;;;5059345;28;20037;-77
2021/01/13 06:16:01;;;;;;;3.92;2.05;;;-0.50;99.90;;;;;;5059452;28;20475;-76
2021/01/13 06:18:27;;;;;;;3.35;1.63;;;-0.60;99.90;;;;;;5058996;28;20036;-77
2021/01/13 06:20:57;;;;;;;3.38;1.80;;;-0.60;99.90;;;;;;5055904;28;20061;-76
2021/01/13 06:23:26;;;;;;;4.78;2.15;;;-0.60;99.90;;;;;;5049410;28;20036;-76
2021/01/13 06:25:55;;;;;;;5.78;2.60;;;-0.60;99.90;;;;;;5053347;28;20440;-76
2021/01/13 06:28:49;;;;;;;4.70;2.15;;;-0.60;99.90;;;;;;5062916;28;20060;-76
2021/01/13 06:31:21;;;;;;;5.97;2.17;;;-0.60;99.90;;;;;;5092750;28;20039;-77
2021/01/13 06:34:08;;;;;;;5.63;2.22;;;-0.60;99.90;;;;;;5053871;28;20115;-76
2021/01/13 06:36:53;;;;;;;3.30;1.90;;;-0.70;99.90;;;;;;5062367;28;20035;-77
2021/01/13 06:39:20;;;;;;;5.97;2.30;;;-0.70;99.90;;;;;;5072661;28;20505;-77
2021/01/13 06:41:47;;;;;;;4.80;2.08;;;-0.70;99.90;;;;;;5060933;28;20025;-77
2021/01/13 06:44:14;;;;;;;5.72;2.10;;;-0.70;99.90;;;;;;5069480;28;20044;-77
2021/01/13 06:46:40;;;;;;;2.97;2.30;;;-0.70;99.90;;;;;;5073519;28;20035;-77
2021/01/13 06:49:23;;;;;;;4.10;2.50;;;-0.70;99.90;;;;;;5072696;28;20119;-76
2021/01/13 06:51:51;;;;;;;4.38;2.55;;;-0.70;99.90;;;;;;5072838;28;20032;-77
2021/01/13 06:54:19;;;;;;;4.03;2.50;;;-0.70;99.90;;;;;;5073198;28;20058;-77
2021/01/13 06:56:58;;;;;;;4.05;2.17;;;-0.80;99.90;;;;;;5073355;28;20056;-77
2021/01/13 06:59:25;;;;;;;2.55;2.03;;;-0.70;99.90;;;;;;5072484;28;20047;-76
2021/01/13 07:01:58;;;;;;;4.63;2.15;;;-0.70;99.90;;;;;;5064733;28;20032;-76
2021/01/13 07:04:26;;;;;;;6.38;2.75;;;-0.70;99.90;;;;;;5076561;28;20028;-77
2021/01/13 07:07:02;;;;;;;7.05;2.78;;;-0.70;99.90;;;;;;5071177;28;20029;-77
2021/01/13 07:09:49;;;;;;;2.92;2.00;;;-0.80;99.90;;;;;;5082536;28;20031;-78
2021/01/13 07:12:25;;;;;;;4.40;2.10;;;-0.70;99.90;;;;;;5086881;28;20562;-76
2021/01/13 07:14:56;;;;;;;6.25;2.20;;;-0.70;99.90;;;;;;5075042;28;20047;-77
2021/01/13 07:17:24;;;;;;;4.80;2.38;;;-0.70;99.90;;;;;;5092963;28;20036;-76
2021/01/13 07:19:51;;;;;;;4.32;2.70;;;-0.70;99.90;;;;;;5090724;28;20047;-78
2021/01/13 07:22:19;;;;;;;7.22;2.72;;;-0.70;99.90;;;;;;5073095;28;20036;-77
2021/01/13 07:24:46;;;;;;;6.30;2.67;;;-0.70;99.90;;;;;;5072756;28;20032;-76
2021/01/13 07:27:13;;;;;;;9.23;2.67;;;-0.70;99.90;;;;;;5072332;28;20025;-76
2021/01/13 07:29:39;;;;;;;5.95;2.30;;;-0.70;99.90;;;;;;5064653;28;20026;-76
2021/01/13 07:32:07;;;;;;;6.32;2.55;;;-0.70;99.90;;;;;;5045627;28;20035;-76
2021/01/13 07:34:43;;;;;;;7.00;2.28;;;-0.60;99.90;;;;;;5068749;28;20444;-76
2021/01/13 07:37:16;;;;;;;8.30;2.60;;;-0.60;99.90;;;;;;5067074;28;20036;-76
2021/01/13 07:40:16;;;;;;;3.42;2.35;;;-0.60;99.90;;;;;;5065668;28;20064;-76
2021/01/13 07:42:46;;;;;;;6.85;2.45;;;-0.60;99.90;;;;;;5021572;28;20040;-76
2021/01/13 07:45:14;;;;;;;8.80;2.63;;;-0.50;99.90;;;;;;5062574;28;20061;-76
2021/01/13 07:48:08;;;;;;;7.18;2.75;;;-0.50;99.90;;;;;;5068583;28;20044;-75
2021/01/13 07:50:40;;;;;;;4.45;2.47;;;-0.50;99.90;;;;;;5075510;28;20063;-77
2021/01/13 07:53:11;;;;;;;6.40;2.70;;;-0.50;99.90;;;;;;5063905;28;20021;-76
2021/01/13 07:55:43;;;;;;;7.13;3.03;;;-0.50;99.90;;;;;;5063529;28;20033;-75
2021/01/13 07:58:19;;;;;;;5.35;2.40;;;-0.50;99.90;;;;;;5050709;28;20032;-76
2021/01/13 08:01:11;;;;;;;6.72;2.63;;;-0.40;99.90;;;;;;5069780;28;20037;-76
2021/01/13 08:04:01;;;;;;;5.20;2.55;;;-0.40;99.90;;;;;;5056629;28;20032;-76
2021/01/13 08:06:34;;;;;;;7.68;2.70;;;-0.30;99.90;;;;;;5060570;28;20749;-75
2021/01/13 08:09:33;;;;;;;5.78;2.50;;;-0.30;99.90;;;;;;5074441;28;20483;-74
2021/01/13 08:12:33;;;;;;;5.45;2.28;;;-0.20;99.90;;;;;;5059750;28;20107;-76
2021/01/13 08:15:24;;;;;;;5.28;2.30;;;-0.10;99.90;;;;;;5060690;28;20036;-76
2021/01/13 08:18:12;;;;;;;3.22;2.30;;;-0.10;99.90;;;;;;5061916;28;20486;-76
2021/01/13 08:21:11;;;;;;;6.03;2.30;;;-0.10;99.90;;;;;;5059141;28;20032;-76
2021/01/13 08:23:41;;;;;;;3.38;2.15;;;-0.10;99.90;;;;;;5073202;28;20057;-76
2021/01/13 08:26:10;;;;;;;9.00;2.15;;;-0.10;99.90;;;;;;5059793;28;20410;-76
2021/01/13 08:28:41;;;;;;;5.53;2.63;;;-0.10;99.90;;;;;;5066856;28;20020;-76
2021/01/13 08:31:08;;;;;;;4.45;2.75;;;-0.10;99.90;;;;;;5064575;28;20032;-76
2021/01/13 08:33:36;;;;;;;7.78;3.13;;;0.00;99.90;;;;;;5066451;28;20111;-76
2021/01/13 08:36:13;;;;;;;8.27;2.78;;;0.00;99.90;;;;;;5064120;28;20068;-75
2021/01/13 08:39:03;;;;;;;5.80;2.33;;;0.00;99.90;;;;;;5061236;28;20044;-76
2021/01/13 08:41:30;;;;;;;7.72;2.88;;;0.00;99.90;;;;;;5060240;28;20029;-75
2021/01/13 08:44:08;;;;;;;6.95;2.65;;;0.10;99.90;;;;;;5060120;28;20120;-76
2021/01/13 08:47:01;;;;;;;5.90;2.30;;;0.00;99.90;;;;;;5061455;28;20036;-77
2021/01/13 08:49:29;;;;;;;7.32;2.80;;;0.10;99.90;;;;;;5052776;28;20055;-76
2021/01/13 08:52:15;;;;;;;4.75;2.30;;;0.10;99.90;;;;;;5071791;28;20032;-75
2021/01/13 08:54:41;;;;;;;5.15;2.35;;;0.10;99.90;;;;;;5061435;28;20021;-76
2021/01/13 08:57:09;;;;;;;7.10;2.17;;;0.10;99.90;;;;;;5066387;28;20028;-76
2021/01/13 08:59:38;;;;;;;8.48;2.42;;;0.20;99.90;;;;;;5057025;28;20514;-76
2021/01/13 09:02:07;;;;;;;9.57;2.38;;;0.20;99.90;;;;;;5059274;28;20024;-76
2021/01/13 09:04:49;;;;;;;5.53;2.50;;;0.20;99.90;;;;;;5064384;28;20036;-75
2021/01/13 09:07:44;;;;;;;2.90;2.30;;;0.20;99.90;;;;;;5059409;28;20600;-75
2021/01/13 09:10:12;;;;;;;1.85;1.58;;;0.30;99.90;;;;;;5063945;28;20121;-75
2021/01/13 09:12:41;;;;;;;4.53;2.35;;;0.30;99.90;;;;;;5059457;28;20033;-77
2021/01/13 09:15:07;;;;;;;3.70;1.88;;;0.40;99.90;;;;;;5057917;28;20118;-77
2021/01/13 09:17:40;;;;;;;3.33;1.85;;;0.40;99.90;;;;;;5065021;28;20082;-76
2021/01/13 09:20:12;;;;;;;2.92;2.00;;;0.40;99.90;;;;;;5045897;28;20032;-77
2021/01/13 09:22:45;;;;;;;2.55;1.80;;;0.40;99.90;;;;;;5064548;28;20013;-77
2021/01/13 09:25:16;;;;;;;3.53;2.30;;;0.40;99.90;;;;;;5068105;28;20028;-78
2021/01/13 09:27:51;;;;;;;2.22;1.52;;;0.50;99.90;;;;;;5065872;28;20665;-78
2021/01/13 09:30:37;;;;;;;3.58;2.08;;;0.50;99.90;;;;;;5063445;28;20037;-77
2021/01/13 09:33:08;;;;;;;8.77;1.73;;;0.50;99.90;;;;;;5068918;28;20026;-78
2021/01/13 09:35:40;;;;;;;3.58;2.38;;;0.50;99.90;;;;;;5072272;28;20037;-77
2021/01/13 09:38:26;;;;;;;2.17;1.50;;;0.50;99.90;;;;;;5063452;28;20596;-77
2021/01/13 09:41:00;;;;;;;5.65;2.05;;;0.50;99.90;;;;;;5040281;28;20025;-76
2021/01/13 09:43:44;;;;;;;5.40;1.95;;;0.60;99.90;;;;;;5029683;28;20730;-77
2021/01/13 09:46:21;;;;;;;3.13;1.92;;;0.60;99.90;;;;;;5060552;28;20027;-77
2021/01/13 09:48:59;;;;;;;4.00;1.73;;;0.60;99.90;;;;;;5074308;28;20047;-78
2021/01/13 09:51:25;;;;;;;4.85;1.95;;;0.70;99.90;;;;;;5065186;28;20040;-78
2021/01/13 09:53:54;;;;;;;3.45;1.80;;;0.80;99.90;;;;;;5066032;28;20082;-78
2021/01/13 09:56:21;;;;;;;5.60;2.15;;;0.80;99.90;;;;;;5064515;28;20024;-77
2021/01/13 09:58:48;;;;;;;5.78;1.80;;;0.80;99.90;;;;;;5073951;28;20111;-75
2021/01/13 10:01:19;;;;;;;3.35;1.83;;;0.80;99.90;;;;;;5077632;28;20020;-77
2021/01/13 10:03:47;;;;;;;3.33;1.80;;;0.90;99.90;;;;;;5049177;28;20025;-75
2021/01/13 10:06:20;;;;;;;2.83;1.85;;;0.90;99.90;;;;;;5044931;28;20025;-75
2021/01/13 10:08:48;;;;;;;2.78;1.50;;;0.90;99.90;;;;;;5036482;28;20449;-74
2021/01/13 10:11:15;;;;;;;3.70;1.65;;;0.90;99.90;;;;;;5045613;28;20064;-74
2021/01/13 10:13:43;;;;;;;2.78;1.20;;;0.80;99.90;;;;;;5051355;28;20041;-75
2021/01/13 10:16:11;;;;;;;12.60;2.35;;;0.80;99.90;;;;;;5056759;28;20033;-75
2021/01/13 10:18:58;;;;;;;3.00;1.40;;;0.80;99.90;;;;;;5053113;28;20057;-75
2021/01/13 10:21:32;;;;;;;3.92;1.33;;;0.80;99.90;;;;;;5052685;28;20553;-74
2021/01/13 10:24:04;;;;;;;4.07;1.50;;;0.80;99.90;;;;;;5055742;28;20529;-75
2021/01/13 10:26:38;;;;;;;6.75;1.83;;;0.80;99.90;;;;;;5052827;28;20537;-75
2021/01/13 10:29:23;;;;;;;4.07;2.10;;;0.70;99.90;;;;;;5052226;28;20025;-75
2021/01/13 10:31:50;;;;;;;3.72;1.60;;;0.70;99.90;;;;;;5057191;28;20379;-75
2021/01/13 10:34:16;;;;;;;5.28;1.73;;;0.70;99.90;;;;;;5061144;28;20020;-75
2021/01/13 10:36:47;;;;;;;5.68;1.95;;;0.70;99.90;;;;;;5063221;28;20536;-75
2021/01/13 10:39:18;;;;;;;4.03;1.67;;;0.70;99.90;;;;;;5057977;28;20044;-75
2021/01/13 10:41:49;;;;;;;5.40;1.17;;;0.70;99.90;;;;;;5070616;28;20090;-74
2021/01/13 10:44:21;;;;;;;7.05;1.52;;;0.70;99.90;;;;;;5058113;28;20059;-75
2021/01/13 10:46:53;;;;;;;6.22;2.03;;;0.70;99.90;;;;;;5054983;28;20052;-74
2021/01/13 10:49:40;;;;;;;6.78;1.63;;;0.70;99.90;;;;;;5067947;28;20453;-75
2021/01/13 10:52:11;;;;;;;4.00;1.50;;;0.80;99.90;;;;;;5063844;28;20039;-74
2021/01/13 10:54:42;;;;;;;3.53;1.60;;;0.80;99.90;;;;;;5060184;28;20035;-75
2021/01/13 10:57:10;;;;;;;5.28;2.20;;;0.90;99.90;;;;;;5062327;28;20032;-75
2021/01/13 10:59:38;;;;;;;5.50;2.35;;;0.90;99.90;;;;;;5072908;28;20033;-75
2021/01/13 11:02:12;;;;;;;3.90;2.00;;;0.90;99.90;;;;;;5069262;28;20063;-75
2021/01/13 11:04:45;;;;;;;5.53;2.20;;;0.90;99.90;;;;;;5077292;28;20046;-76
2021/01/13 11:07:20;;;;;;;2.17;1.60;;;0.90;99.90;;;;;;5049873;28;20095;-75
2021/01/13 11:09:50;;;;;;;3.95;2.13;;;0.90;99.90;;;;;;5051750;28;20032;-75
2021/01/13 11:12:40;;;;;;;5.28;2.63;;;1.00;99.90;;;;;;5040219;28;20037;-75
2021/01/13 11:15:10;;;;;;;4.32;1.40;;;1.00;99.90;;;;;;5064545;28;20094;-75
2021/01/13 11:17:36;;;;;;;3.53;1.85;;;1.00;99.90;;;;;;5070670;28;20032;-76
2021/01/13 11:20:07;;;;;;;6.78;2.05;;;0.90;99.90;;;;;;5076408;28;20107;-74
2021/01/13 11:22:48;;;;;;;3.17;1.98;;;0.90;99.90;;;;;;5074761;28;20024;-75
2021/01/13 11:25:38;;;;;;;3.30;2.10;;;0.80;99.90;;;;;;5065746;28;20029;-75
2021/01/13 11:28:09;;;;;;;4.25;2.13;;;0.80;99.90;;;;;;5073930;28;20028;-75
2021/01/13 11:30:37;;;;;;;12.18;2.83;;;0.80;99.90;;;;;;5082255;28;20031;-74
2021/01/13 11:33:05;;;;;;;4.85;2.05;;;0.70;99.90;;;;;;5061754;28;20442;-74
2021/01/13 11:35:33;;;;;;;4.03;1.98;;;0.80;99.90;;;;;;5082448;28;20020;-75
2021/01/13 11:38:41;;;;;;;5.22;2.50;;;0.80;99.90;;;;;;5070546;28;20032;-75
2021/01/13 11:41:18;;;;;;;2.85;1.90;;;0.80;99.90;;;;;;5052680;28;20075;-73
2021/01/13 11:44:10;;;;;;;4.95;1.80;;;0.80;99.90;;;;;;5081667;28;20020;-74
2021/01/13 11:47:03;;;;;;;7.38;2.30;;;0.80;99.90;;;;;;5054368;28;20036;-75
2021/01/13 11:49:29;;;;;;;5.90;2.00;;;0.80;99.90;;;;;;5056367;28;20125;-75
2021/01/13 11:51:57;;;;;;;4.95;2.30;;;0.80;99.90;;;;;;5063062;28;20929;-75
2021/01/13 11:54:28;;;;;;;3.28;1.80;;;0.80;99.90;;;;;;5048193;28;20568;-75
2021/01/13 11:56:55;;;;;;;5.30;2.20;;;0.90;99.90;;;;;;5068099;28;20665;-75
2021/01/13 11:59:25;;;;;;;11.68;3.03;;;0.90;99.90;;;;;;5074540;28;20031;-75
2021/01/13 12:01:52;;;;;;;4.00;2.22;;;0.80;99.90;;;;;;5065665;28;20125;-75
2021/01/13 12:04:18;;;;;;;4.60;2.30;;;0.90;99.90;;;;;;5064425;28;20029;-75
2021/01/13 12:06:58;;;;;;;7.00;2.78;;;0.90;99.90;;;;;;5069045;28;20453;-76
2021/01/13 12:09:25;;;;;;;7.50;2.33;;;0.90;99.90;;;;;;5056419;28;20071;-75
2021/01/13 12:11:51;;;;;;;3.90;2.08;;;0.90;99.90;;;;;;5055371;28;20128;-74
2021/01/13 12:14:17;;;;;;;4.78;2.33;;;0.90;99.90;;;;;;5051823;28;20033;-74
2021/01/13 12:16:43;;;;;;;6.03;2.38;;;1.00;99.90;;;;;;5059486;28;20028;-75
2021/01/13 12:19:08;;;;;;;3.83;2.17;;;1.00;99.90;;;;;;5054820;28;20086;-75
2021/01/13 12:21:35;;;;;;;2.40;1.95;;;1.00;99.90;;;;;;5059350;28;20106;-75
2021/01/13 12:24:16;;;;;;;6.32;2.13;;;1.00;99.90;;;;;;5061400;28;20747;-75
2021/01/13 12:26:43;;;;;;;3.42;2.30;;;1.00;99.90;;;;;;5059652;28;20024;-74
2021/01/13 12:29:08;;;;;;;4.18;2.38;;;1.00;99.90;;;;;;5058829;28;20107;-76
2021/01/13 12:31:38;;;;;;;5.13;3.00;;;0.90;99.90;;;;;;5062372;28;20043;-75
2021/01/13 12:34:11;;;;;;;6.82;1.73;;;0.90;99.90;;;;;;5061181;28;20063;-75
2021/01/13 12:36:39;;;;;;;5.22;1.92;;;0.90;99.90;;;;;;5058883;28;20032;-75
2021/01/13 12:39:07;;;;;;;7.88;2.17;;;0.90;99.90;;;;;;5061630;28;20111;-75
2021/01/13 12:41:36;;;;;;;5.90;1.77;;;0.80;99.90;;;;;;5060630;28;20099;-75
2021/01/13 12:44:08;;;;;;;6.55;2.45;;;0.80;99.90;;;;;;5058334;28;20396;-75
2021/01/13 12:46:47;;;;;;;3.75;2.15;;;0.80;99.90;;;;;;5067578;28;20542;-75
2021/01/13 12:49:12;;;;;;;5.13;2.30;;;0.70;99.90;;;;;;5059467;28;20033;-75
2021/01/13 12:51:38;;;;;;;6.88;2.47;;;0.70;99.90;;;;;;5073365;28;20090;-74
2021/01/13 12:54:04;;;;;;;3.42;1.92;;;0.70;99.90;;;;;;5066492;28;20056;-75
2021/01/13 12:56:32;;;;;;;4.82;2.00;;;0.70;99.90;;;;;;5068115;28;20032;-74
2021/01/13 12:58:59;;;;;;;4.00;2.28;;;0.60;99.90;;;;;;5074431;28;20490;-75
2021/01/13 13:01:26;;;;;;;6.32;2.75;;;0.60;99.90;;;;;;5062098;28;20035;-75
2021/01/13 13:03:52;;;;;;;5.60;2.10;;;0.60;99.90;;;;;;5059184;28;20025;-74
2021/01/13 13:06:31;;;;;;;4.10;1.90;;;0.60;99.90;;;;;;5062714;28;20020;-74
2021/01/13 13:08:58;;;;;;;4.53;2.13;;;0.70;99.90;;;;;;5048252;28;20116;-75
2021/01/13 13:11:25;;;;;;;3.40;2.20;;;0.80;99.90;;;;;;5056525;28;20097;-75
2021/01/13 13:13:51;;;;;;;5.75;2.33;;;0.80;99.90;;;;;;5056465;28;20025;-75
2021/01/13 13:16:19;;;;;;;4.15;2.30;;;0.90;99.90;;;;;;5058848;28;20025;-74
2021/01/13 13:18:46;;;;;;;3.92;1.90;;;1.00;99.90;;;;;;5062708;28;20020;-75